Seiyu Maru — JD3189 — position and weather

sailwx.info

Track history (hours):
 
Tides and Currents Weather Stations Pressure Air Temp Water Temp Dewpoint Dewpoint Depression Visibility Wind Speed Wind Dir Waves Ship Positions

Seiyu Maru

Last reported at 2017-Feb-15 12:25 UTC. Time now 2017-Feb-25 15:54 UTC.
Position N 34°04' E 135°01'.
Warning: this ship's position is 10 days out of date.

Length 75 m; draft 4.5 m.

Type: Cargo ship. MMSI: 431002433.

Date/timePositionNaut miles runAvg speedWind from/ knotsBaromVisibWave heightAir tempDewpointWater temp
2017-Feb-15 12:25N 34°04' E 135°01'1011.4
2017-Feb-15 11:33N 34°13' E 135°02'1210.6
2017-Feb-15 10:26N 34°24' E 135°08'1011.4
2017-Feb-15 09:33N 34°32' E 135°16'9 9.0
2017-Feb-15 08:33N 34°37' E 135°25'0 0.1
2017-Feb-15 07:33N 34°38' E 135°25'0 0.0
2017-Feb-15 06:21N 34°38' E 135°25'0 0.0
2017-Feb-15 05:33N 34°38' E 135°25'0 0.0
2017-Feb-15 04:27N 34°38' E 135°25'0 0.0
2017-Feb-15 03:33N 34°38' E 135°25'1 0.0
2017-Feb-14 06:33N 34°38' E 135°24'3 2.6
2017-Feb-14 05:33N 34°40' E 135°26'0 0.0
2017-Feb-14 04:31N 34°40' E 135°26'0 0.0
2017-Feb-14 03:31N 34°40' E 135°26'0 0.0
2017-Feb-14 02:33N 34°40' E 135°26'0 0.0
2017-Feb-14 01:32N 34°40' E 135°26'0 0.2
2017-Feb-14 00:33N 34°39' E 135°26'1 1.3
2017-Feb-13 23:33N 34°40' E 135°27'0 0.1
2017-Feb-13 22:33N 34°40' E 135°27'0 0.0
2017-Feb-13 21:33N 34°40' E 135°27'0 0.1
2017-Feb-13 20:33N 34°40' E 135°27'0 0.0
2017-Feb-13 19:33N 34°40' E 135°27'0 0.0
2017-Feb-13 18:33N 34°40' E 135°27'0 0.0
2017-Feb-13 17:33N 34°40' E 135°27'0 0.0
2017-Feb-13 16:33N 34°40' E 135°27'0 0.0
2017-Feb-13 15:33N 34°40' E 135°27'8 7.8
2017-Feb-13 14:33N 34°37' E 135°18'1110.9
2017-Feb-13 13:33N 34°35' E 135°05'8 0.3
2017-Feb-12 08:29N 34°36' E 134°55'9 9.5
2017-Feb-12 07:33N 34°36' E 135°06'1211.6
2017-Feb-12 06:33N 34°38' E 135°20'7 6.5
2017-Feb-12 05:31N 34°39' E 135°28'0 0.0
2017-Feb-12 04:26N 34°39' E 135°28'  
2017-Feb-09 23:32N 34°39' E 135°28'1 1.4
2017-Feb-09 22:31N 34°38' E 135°27'0 0.0
2017-Feb-09 21:19N 34°38' E 135°27'0 0.0
2017-Feb-09 20:31N 34°38' E 135°27'0 0.4
2017-Feb-09 19:33N 34°38' E 135°27'1010.3
2017-Feb-09 18:33N 34°36' E 135°15'1313.0
2017-Feb-09 17:33N 34°37' E 134°59'11 0.4
2017-Feb-08 16:09N 34°40' E 134°47'7 9.1
2017-Feb-08 15:25N 34°38' E 134°54'7 8.1
2017-Feb-08 14:33N 34°37' E 135°02'8 8.4
2017-Feb-08 13:33N 34°28' E 135°03'2110.4
2017-Feb-08 11:29N 34°07' E 134°60'  
Track history (hours):
 
Tides and Currents Weather Stations Pressure Air Temp Water Temp Dewpoint Dewpoint Depression Visibility Wind Speed Wind Dir Waves Ship Positions

Seiyu Maru

Last reported at 2017-Feb-15 12:25 UTC. Time now 2017-Feb-25 15:54 UTC.
Position N 34°04' E 135°01'.
Warning: this ship's position is 10 days out of date.

Length 75 m; draft 4.5 m.

Type: Cargo ship. MMSI: 431002433.

Date/timePositionNaut miles runAvg speedWind from/ knotsBaromVisibWave heightAir tempDewpointWater temp
2017-Feb-15 12:25N 34°04' E 135°01'1011.4
2017-Feb-15 11:33N 34°13' E 135°02'1210.6
2017-Feb-15 10:26N 34°24' E 135°08'1011.4
2017-Feb-15 09:33N 34°32' E 135°16'9 9.0
2017-Feb-15 08:33N 34°37' E 135°25'0 0.1
2017-Feb-15 07:33N 34°38' E 135°25'0 0.0
2017-Feb-15 06:21N 34°38' E 135°25'0 0.0
2017-Feb-15 05:33N 34°38' E 135°25'0 0.0
2017-Feb-15 04:27N 34°38' E 135°25'0 0.0
2017-Feb-15 03:33N 34°38' E 135°25'1 0.0
2017-Feb-14 06:33N 34°38' E 135°24'3 2.6
2017-Feb-14 05:33N 34°40' E 135°26'0 0.0
2017-Feb-14 04:31N 34°40' E 135°26'0 0.0
2017-Feb-14 03:31N 34°40' E 135°26'0 0.0
2017-Feb-14 02:33N 34°40' E 135°26'0 0.0
2017-Feb-14 01:32N 34°40' E 135°26'0 0.2
2017-Feb-14 00:33N 34°39' E 135°26'1 1.3
2017-Feb-13 23:33N 34°40' E 135°27'0 0.1
2017-Feb-13 22:33N 34°40' E 135°27'0 0.0
2017-Feb-13 21:33N 34°40' E 135°27'0 0.1
2017-Feb-13 20:33N 34°40' E 135°27'0 0.0
2017-Feb-13 19:33N 34°40' E 135°27'0 0.0
2017-Feb-13 18:33N 34°40' E 135°27'0 0.0
2017-Feb-13 17:33N 34°40' E 135°27'0 0.0
2017-Feb-13 16:33N 34°40' E 135°27'0 0.0
2017-Feb-13 15:33N 34°40' E 135°27'8 7.8
2017-Feb-13 14:33N 34°37' E 135°18'1110.9
2017-Feb-13 13:33N 34°35' E 135°05'8 0.3
2017-Feb-12 08:29N 34°36' E 134°55'9 9.5
2017-Feb-12 07:33N 34°36' E 135°06'1211.6
2017-Feb-12 06:33N 34°38' E 135°20'7 6.5
2017-Feb-12 05:31N 34°39' E 135°28'0 0.0
2017-Feb-12 04:26N 34°39' E 135°28'  
2017-Feb-09 23:32N 34°39' E 135°28'1 1.4
2017-Feb-09 22:31N 34°38' E 135°27'0 0.0
2017-Feb-09 21:19N 34°38' E 135°27'0 0.0
2017-Feb-09 20:31N 34°38' E 135°27'0 0.4
2017-Feb-09 19:33N 34°38' E 135°27'1010.3
2017-Feb-09 18:33N 34°36' E 135°15'1313.0
2017-Feb-09 17:33N 34°37' E 134°59'11 0.4
2017-Feb-08 16:09N 34°40' E 134°47'7 9.1
2017-Feb-08 15:25N 34°38' E 134°54'7 8.1
2017-Feb-08 14:33N 34°37' E 135°02'8 8.4
2017-Feb-08 13:33N 34°28' E 135°03'2110.4
2017-Feb-08 11:29N 34°07' E 134°60'  

Dump ship's entire track history